Ventress, Louisiana
Current Conditions -  °F | °C
As of 10:35 AM on Tuesday 21 Oct 2014 (Local Time) from KHZR Reporting Station
Clear Clear  
Wind Chill: 71°   Ceiling: Unl
Heat Index: 71°   Visibility: 10mi
Dew Point: 54°   Wind: 6mph
Humidity: 54%   Direction: 10°N
Pressure: 30.09"   Gusts: NA
Location:  30.68°N, 91.41°W
Report Text: KHZR 211535Z AUTO 01005KT 10SM CLR 22/12 A3009 RMK AO2 T02190123
Loading
Personal Weather Stations






























Interactive Weather Map
Tropical Storm Tracking
New forecast layout! Learn more

10-Day Weather Forecast

Advertisements
Track Severe Weather on mobile